Sonic Adventure (DX): Overall Rankings

Records: Times | Rings | Scores | Races | Bosses | Freestyle
Leaders: Times | Rings | Scores | Races | Bosses | Freestyle | Overall
Rank Player Percent Points Date Grade
1 Sonicspeedruner 98.4% 245 01-25-15 S
2 Gamepro011 97.5% 391 01-25-15 A
3 DarkPolarNight 96.4% 564 01-25-15 A
4 Jawzun 94.0% 951 01-25-15 A
5 Dashjump 92.0% 1265 01-25-15 A
6 DarkspinesSonic 91.1% 1405 01-25-15 A
7 Avento128bits 90.6% 1486 01-25-15 A
8 ike6252 90.5% 1507 01-25-15 A
9 F-Man 86.3% 2169 01-25-15 A
10 HyperSonic7701 85.4% 2321 01-25-15 A
11 yoshifan 84.1% 2528 01-25-15 A
12 Coolfansonic 84.0% 2536 01-25-15 A
13 frankoredstrato 83.6% 2604 01-25-15 A
14 francisco 82.5% 2775 01-25-15 A
15 Marth 82.2% 2826 01-25-15 A
16 InferSaime 81.1% 3005 01-25-15 A
17 PfoSonic 80.7% 3067 01-25-15 A
18 Paragod 80.1% 3159 01-25-15 A
19 THC98 78.6% 3397 01-25-15 B
20 Stefan 77.1% 3647 01-25-15 B
21 RPGnutter 74.9% 3994 01-25-15 B
22 bertin 74.6% 4041 01-25-15 B
23 sonicam 72.4% 4384 01-25-15 B
24 Combo 66.6% 5313 01-25-15 B
25 SkyLights 65.4% 5503 01-25-15 B
26 Diamond 63.5% 5802 01-25-15 B
27 SonicDash1999 62.5% 5965 01-25-15 B
28 Auriman1 61.2% 6175 01-25-15 B
28 GerbilSoft 61.2% 6175 01-25-15 B
30 OmegaDJ 61.1% 6180 01-25-15 B
31 magnum12 60.2% 6335 01-25-15 B
32 Dawid8404 60.0% 6356 01-25-15 B
33 Thorn 58.2% 6655 01-25-15 C
34 P1 Pause 57.9% 6701 01-25-15 C
35 mike89 56.6% 6906 01-25-15 C
36 Groudon199 54.7% 7214 01-25-15 C
37 Dave Cramer 54.6% 7223 01-25-15 C
38 chainchumper 54.2% 7288 01-25-15 C
39 Shadow Jacky 53.5% 7391 01-25-15 C
40 Parax 53.5% 7403 01-25-15 C
41 Psymar 48.3% 8223 01-25-15 C
42 Chao_Fan 46.6% 8503 01-25-15 C
43 Arch 46.3% 8551 01-25-15 C
44 mauserman 45.8% 8630 01-25-15 C
45 Quartz 45.4% 8690 01-25-15 C
46 teamblackarms 44.4% 8850 01-25-15 C
47 Psyknux 44.0% 8917 01-25-15 C
48 James_Bertolli 43.6% 8980 01-25-15 C
49 NintenDan 43.1% 9062 01-25-15 C
50 Webber3000 42.4% 9160 01-25-15 C
51 Turbos 42.3% 9179 01-25-15 C
52 Fr3nZy 42.2% 9191 01-25-15 C
53 Ring Rush 42.2% 9196 01-25-15 C
54 Cream147 42.1% 9213 01-25-15 C
55 videogamemaster777 42.0% 9230 01-25-15 C
56 Siavash Tazari 41.7% 9282 01-25-15 C
57 buddychaos0415 41.3% 9346 01-25-15 C
58 SadisticMystic 40.4% 9478 01-25-15 C
59 eggFL 39.7% 9590 01-25-15 D
60 Redd 39.0% 9704 01-25-15 D
61 SB737 38.1% 9846 01-25-15 D
62 drminus 37.9% 9883 01-25-15 D
63 supersonicfan 36.9% 10036 01-25-15 D
64 FuzZerd 35.8% 10216 01-25-15 D
65 elecmouse101 35.1% 10323 01-25-15 D
66 supersonic465 35.0% 10343 01-25-15 D
67 Austinf 33.6% 10573 01-25-15 D
68 metanightmare22 33.5% 10590 01-25-15 D
69 Aitamen 33.4% 10607 01-25-15 D
70 dabestgamer 33.3% 10619 01-25-15 D
71 Cyan Ryan 33.2% 10636 01-25-15 D
72 MiStEr_ShAoLiN 33.1% 10640 01-25-15 D
73 itsPersonnal 32.1% 10810 01-25-15 D
74 Cybrax 31.3% 10940 01-25-15 D
75 Andrea Ritsu 31.1% 10962 01-25-15 D
76 SilvertheAlmighty 31.0% 10981 01-25-15 D
77 danieldude 31.0% 10984 01-25-15 D
78 VMU Player Banned 29.1% 11283 01-25-15 D
79 Staf 28.6% 11357 01-25-15 D
80 Omega Rafael Santos 28.6% 11371 01-25-15 D
81 The T 28.4% 11400 01-25-15 D
82 EngiNerd 28.1% 11447 01-25-15 D
83 lordmetalsonic 27.4% 11562 01-25-15 D
84 Hipertails12 26.9% 11638 01-25-15 D
85 welldooder64 26.7% 11664 01-25-15 D
86 GreatStar 26.6% 11677 01-25-15 D
86 Sondow 26.6% 11677 01-25-15 D
88 The Great Lord Mick 26.4% 11717 01-25-15 D
89 Mastakirby 26.3% 11737 01-25-15 D
90 LinksDarkArrows 26.2% 11746 01-25-15 D
91 Skylace 25.2% 11902 01-25-15 D
92 Rolken 23.8% 12133 01-25-15 D
93 Nimrod 23.0% 12262 01-25-15 D
94 Xia 22.2% 12377 01-25-15 D
95 Kogen Player Banned 22.1% 12401 01-25-15 D
96 Spinballwizard 22.0% 12416 01-25-15 D
97 Cutiefox 21.6% 12482 01-25-15 D
98 f0rever_zer0 21.5% 12496 01-25-15 D
99 Don 21.4% 12503 01-25-15 D
100 Miles9999 21.4% 12507 01-25-15 D
101 andres430 20.8% 12614 01-25-15 D
102 Cruizer 20.7% 12628 01-25-15 D
103 iSonicKid2K 20.4% 12662 01-25-15 D
104 SADXTryHard 20.0% 12738 01-25-15 D
105 GarnetPrincess 19.7% 12779 01-25-15 E
106 knuckles_sonic8 19.1% 12882 01-25-15 E
107 Team_Yoshi 18.4% 12984 01-25-15 E
108 The Knuckles Chao 18.2% 13028 01-25-15 E
109 FoxBoy 18.0% 13060 01-25-15 E
110 Termon 17.9% 13076 01-25-15 E
111 KinkyCadence 17.7% 13098 01-25-15 E
112 Sonic Singularity 15.8% 13403 01-25-15 E
113 Pokemonmaster888 15.8% 13405 01-25-15 E
114 SonicWinDX 15.3% 13484 01-25-15 E
115 BigAL49 14.8% 13566 01-25-15 E
116 SilverSonic 14.6% 13599 01-25-15 E
117 MPit08 14.5% 13612 01-25-15 E
118 Mo Player Banned 14.3% 13649 01-25-15 E
119 HyperSonic64 13.5% 13761 01-25-15 E
120 Cod4Scopes 13.5% 13764 01-25-15 E
121 booo95 13.4% 13782 01-25-15 E
122 Chawkk 13.3% 13803 01-25-15 E
123 SuperSonic101 13.1% 13832 01-25-15 E
124 Maxinfamily 12.9% 13869 01-25-15 E
125 Hunters13 12.9% 13870 01-25-15 E
126 PsyBorg 12.6% 13919 01-25-15 E
127 Kanimayo_Jp 12.5% 13921 01-25-15 E
128 Flying Fox 12.5% 13924 01-25-15 E
129 BrokenArthritis 12.4% 13939 01-25-15 E
130 LilZero 12.4% 13945 01-25-15 E
131 paulie9990 12.3% 13962 01-25-15 E
132 sonicspeed 11.8% 14032 01-25-15 E
133 douglas 11.7% 14056 01-25-15 E
134 Therio 11.6% 14074 01-25-15 E
135 Matt_TY 11.4% 14104 01-25-15 E
136 Cooljay 10.8% 14206 01-25-15 E
137 SeaWolf 10.6% 14223 01-25-15 E
138 joecoolgames 10.6% 14230 01-25-15 E
139 TFEC Headshot 10.1% 14315 01-25-15 E
140 welshmoose05 10.0% 14323 01-25-15 E
141 crazy1993 9.8% 14364 01-25-15 E
142 Mcshuggets 9.6% 14390 01-25-15 E
143 videogamer1014 9.4% 14415 01-25-15 E
144 imazor017 9.2% 14456 01-25-15 E
144 nuckrieg 9.2% 14456 01-25-15 E
144 SonicAD 9.2% 14456 01-25-15 E
147 niscool 9.1% 14463 01-25-15 E
148 SirTobbii 9.1% 14471 01-25-15 E
149 superjupi 8.9% 14501 01-25-15 E
150 Shadowthegreat 8.9% 14504 01-25-15 E
151 SaviourDC 8.6% 14555 01-25-15 E
152 iarebored 8.5% 14559 01-25-15 E
153 sonamyfan666 8.5% 14566 01-25-15 E
154 SonicKnuckles 8.4% 14587 01-25-15 E
155 Werey 8.3% 14593 01-25-15 E
156 adf 8.0% 14640 01-25-15 E
157 ArcticDragon 7.9% 14663 01-25-15 E
158 Megaman EXE565 7.9% 14664 01-25-15 E
159 Platformer 7.5% 14722 01-25-15 E
160 FocusSight64 7.4% 14745 01-25-15 E
161 timpkmn89 7.3% 14752 01-25-15 E
162 wheatrich 7.3% 14753 01-25-15 E
163 Swift Hobo 7.3% 14764 01-25-15 E
164 Rickyman48 7.1% 14791 01-25-15 E
165 KitsuneYamaro 6.9% 14822 01-25-15 E
166 Triseena 6.8% 14843 01-25-15 E
167 CyberShadow 6.6% 14871 01-25-15 E
168 dShadow 6.5% 14886 01-25-15 E
168 slade23 6.5% 14886 01-25-15 E
170 Starlight Sable 6.4% 14901 01-25-15 E
171 IsisDazs 6.3% 14918 01-25-15 E
172 BlankTH 6.2% 14936 01-25-15 E
173 Monkeh 5.9% 14985 01-25-15 E
174 Richied 5.8% 14988 01-25-15 E
175 DaDude 5.7% 15009 01-25-15 E
176 Zip 5.6% 15033 01-25-15 E
177 sonicd5 5.5% 15036 01-25-15 E
178 tal39h 5.2% 15087 01-25-15 E
179 Kirbymon30 5.2% 15098 01-25-15 E
180 soniccoloursunleashed 4.9% 15141 01-25-15 E
181 Drflash55 4.9% 15142 01-25-15 E
182 Bass 4.7% 15167 01-25-15 E
183 neaolas 4.7% 15168 01-25-15 E
184 superiorsonic 4.6% 15185 01-25-15 E
185 Sonicsuperstar1 4.6% 15190 01-25-15 E
186 UninspiredUsername 4.6% 15192 01-25-15 E
187 zapp 4.6% 15194 01-25-15 E
188 gamefreak1292 4.4% 15212 01-25-15 E
189 SonicU260 4.2% 15256 01-25-15 E
190 Chaos_Overlord 4.2% 15257 01-25-15 E
191 TakaRikka 4.0% 15277 01-25-15 E
192 Valfore 4.0% 15285 01-25-15 E
193 ShinigamiMachine 3.8% 15316 01-25-15 E
194 Regano1000 3.8% 15321 01-25-15 E
195 MK 3.6% 15341 01-25-15 E
196 Ace747 3.6% 15349 01-25-15 E
197 Illidan 3.3% 15401 01-25-15 E
198 Venick409 3.1% 15423 01-25-15 E
199 Sithwarrior26 3.1% 15430 01-25-15 E
200 Brian_pso 3.1% 15431 01-25-15 E
201 TheChaosEmeraIds 3.0% 15447 01-25-15 E
202 ingx24 2.9% 15451 01-25-15 E
203 SkyBon 2.9% 15458 01-25-15 E
204 Nickson98 2.9% 15461 01-25-15 E
205 Fozer 2.8% 15473 01-25-15 E
206 Colomb_30 2.8% 15481 01-25-15 E
206 sonic29887 2.8% 15481 01-25-15 E
208 FSSRandomvids 2.7% 15483 01-25-15 E
209 TheUltraBlur 2.6% 15499 01-25-15 E
210 1stKirbyever 2.6% 15509 01-25-15 E
211 Th4tN1nj4Turtl3 2.4% 15543 01-25-15 E
212 Cort_pso 2.3% 15550 01-25-15 E
213 ieatatsonic 2.3% 15554 01-25-15 E
214 Doom-9 2.3% 15555 01-25-15 E
215 Mariosonic15 2.3% 15560 01-25-15 E
216 SuperSonic71087 2.2% 15568 01-25-15 E
217 MStitomix 2.1% 15580 01-25-15 E
218 HermitHelmet 2.1% 15581 01-25-15 E
219 Artie 2.0% 15593 01-25-15 E
220 Got4n 2.0% 15596 01-25-15 E
221 Jose_15 2.0% 15605 01-25-15 E
222 Questionguy555 1.9% 15610 01-25-15 E
223 a_moustache 1.9% 15616 01-25-15 E
224 djmat 1.9% 15620 01-25-15 E
225 sonicandamy 1.7% 15645 01-25-15 E
226 Heroes_Hater 1.7% 15646 01-25-15 E
227 LancexExWx 1.7% 15647 01-25-15 E
228 son1cgu1tar 1.7% 15651 01-25-15 E
229 Paixii 1.6% 15657 01-25-15 E
230 BallzeH 1.6% 15671 01-25-15 E
231 Mankster101 1.5% 15676 01-25-15 E
232 BecauseWarAnvil 1.5% 15677 01-25-15 E
233 Jamixesa 1.5% 15681 01-25-15 E
234 Shanekilz 1.4% 15689 01-25-15 E
234 SpiritDragon1995 1.4% 15689 01-25-15 E
236 Crydio 1.4% 15692 01-25-15 E
237 ReuelBrony 1.4% 15700 01-25-15 E
238 stanski 1.3% 15708 01-25-15 E
239 Sonique Hedgehog 1.3% 15710 01-25-15 E
240 p0ker 1.2% 15721 01-25-15 E
241 Blue Infamy 1.2% 15723 01-25-15 E
242 Arthas 1.2% 15733 01-25-15 E
242 ErrortheCucco 1.2% 15733 01-25-15 E
244 Rikum22 1.1% 15736 01-25-15 E
245 sonic1001 1.1% 15744 01-25-15 E
245 WingedInsignia 1.1% 15744 01-25-15 E
247 AJSIV 1.1% 15751 01-25-15 E
247 syco1098 1.1% 15751 01-25-15 E
249 Sonic the Hedgehod16 1.0% 15752 01-25-15 E
250 Calfd 1.0% 15759 01-25-15 E
251 Mariobutch 1.0% 15760 01-25-15 E
252 BlackArmsShadow 0.9% 15769 01-25-15 E
253 themachoman202 0.9% 15774 01-25-15 E
254 Ben1502 0.9% 15779 01-25-15 E
255 MastaToken 0.9% 15780 01-25-15 E
255 shadowblast63 Player Banned 0.9% 15780 01-25-15 E
257 Fivavoa 0.9% 15781 01-25-15 E
257 Greham Adelphis 0.9% 15781 01-25-15 E
259 darkstarblaze 0.8% 15784 01-25-15 E
259 Mr. Jones 0.8% 15784 01-25-15 E
259 ptorflaxendrosis 0.8% 15784 01-25-15 E
262 arcfx1985 0.8% 15786 01-25-15 E
263 FlandreScarlet9999vr 0.8% 15790 01-25-15 E
263 Gvozdevik 0.8% 15790 01-25-15 E
263 Knuckles 0.8% 15790 01-25-15 E
266 KaM Mark MaK 0.8% 15798 01-25-15 E
267 BeeAwwb 0.7% 15800 01-25-15 E
268 ShadouZaHejjihoggu 0.7% 15805 01-25-15 E
269 Sonic62 0.7% 15811 01-25-15 E
270 darkersupershadic 0.7% 15814 01-25-15 E
271 Sogeking 0.7% 15815 01-25-15 E
272 dragondragon18 0.6% 15818 01-25-15 E
272 Shadygamerfreak 0.6% 15818 01-25-15 E
274 Sarger001 0.6% 15819 01-25-15 E
274 SonicK100 0.6% 15819 01-25-15 E
276 Grady219 0.6% 15820 01-25-15 E
277 Jawaah 0.6% 15824 01-25-15 E
278 Antek 0.6% 15828 01-25-15 E
279 SilverK 0.6% 15829 01-25-15 E
280 Klaus 0.6% 15830 01-25-15 E
281 BioShadow 0.5% 15835 01-25-15 E
282 SpinDashMaster 0.5% 15839 01-25-15 E
283 Videogamer123 0.5% 15840 01-25-15 E
284 Egor305 0.4% 15854 01-25-15 E
284 oTaiIilLsS 0.4% 15854 01-25-15 E
286 isaihtb11 0.4% 15855 01-25-15 E
287 OhNoes! 0.4% 15856 01-25-15 E
288 Mad Andy 0.4% 15857 01-25-15 E
289 zaktu40 0.4% 15858 01-25-15 E
290 gaara1234 0.4% 15861 01-25-15 E
291 gamed00d 0.4% 15862 01-25-15 E
292 Mister_Slick 0.3% 15872 01-25-15 E
293 Sonic06Fan 0.3% 15874 01-25-15 E
294 Rush Hero 0.3% 15875 01-25-15 E
295 SonicMega167 0.3% 15878 01-25-15 E
296 Iwannabelink 0.3% 15879 01-25-15 E
297 sonknuck23 0.2% 15884 01-25-15 E
298 gamer1245 0.2% 15889 01-25-15 E
299 DanielTheFalcon 0.2% 15890 01-25-15 E
300 Burningskull123 0.1% 15897 01-25-15 E
301 Sonicontherun 0.1% 15907 01-25-15 E
302 Lil_Dude 0.1% 15911 01-25-15 E
303 antiwwe 0.0% 15913 01-25-15 E
304 Genuine Hedgehog 0.0% 15917 01-25-15 E
305 Cbwade15 0.0% 15918 01-25-15 E
306 Tyrouble 0.0% 15920 01-25-15 E
307 MegabombBlade 0.0% 15927 01-25-15 E
307 neji_hyuuga 0.0% 15927 01-25-15 E
307 Over 0.0% 15927 01-25-15 E
307 sdj6707 Player Banned 0.0% 15927 01-25-15 E
307 Tran Sonic Fan Player Banned 0.0% 15927 01-25-15 E

This page is using the New Data Table System. [FUTURE]


-- Back to Normal Skin --
Game ID: 3 | Category ID: 10
Hits: 61,890 | Hits This Month: 406 | DB Calls: 16 | Mem Usage: 5.43 MB | Time: 0.12s | Printable

The Sonic Center v3.9
Copyright 2003-2011 by The Sonic Center Team.